sensor_id;sensor_type;location;lat;lon;timestamp;P1;durP1;ratioP1;P2;durP2;ratioP2
20271;SDS011;10295;49.812;9.866;2023-03-14T00:01:07;3.27;;;0.80;;
20271;SDS011;10295;49.812;9.866;2023-03-14T00:03:34;1.90;;;0.70;;
20271;SDS011;10295;49.812;9.866;2023-03-14T00:06:02;2.53;;;0.80;;
20271;SDS011;10295;49.812;9.866;2023-03-14T00:08:30;2.17;;;0.90;;
20271;SDS011;10295;49.812;9.866;2023-03-14T00:10:57;3.03;;;0.80;;
20271;SDS011;10295;49.812;9.866;2023-03-14T00:13:24;2.33;;;0.90;;
20271;SDS011;10295;49.812;9.866;2023-03-14T00:15:51;2.20;;;0.90;;
20271;SDS011;10295;49.812;9.866;2023-03-14T00:18:19;4.43;;;0.90;;
20271;SDS011;10295;49.812;9.866;2023-03-14T00:20:46;1.63;;;0.80;;
20271;SDS011;10295;49.812;9.866;2023-03-14T00:23:13;2.30;;;0.80;;
20271;SDS011;10295;49.812;9.866;2023-03-14T00:25:40;3.60;;;0.70;;
20271;SDS011;10295;49.812;9.866;2023-03-14T00:28:07;3.57;;;0.90;;
20271;SDS011;10295;49.812;9.866;2023-03-14T00:30:36;2.93;;;0.70;;
20271;SDS011;10295;49.812;9.866;2023-03-14T00:33:05;2.73;;;0.73;;
20271;SDS011;10295;49.812;9.866;2023-03-14T00:35:32;1.47;;;0.53;;
20271;SDS011;10295;49.812;9.866;2023-03-14T00:37:59;2.40;;;0.80;;
20271;SDS011;10295;49.812;9.866;2023-03-14T00:40:26;1.90;;;0.80;;
20271;SDS011;10295;49.812;9.866;2023-03-14T00:42:53;3.43;;;0.80;;
20271;SDS011;10295;49.812;9.866;2023-03-14T00:45:20;2.07;;;0.80;;
20271;SDS011;10295;49.812;9.866;2023-03-14T00:47:47;2.27;;;0.70;;
20271;SDS011;10295;49.812;9.866;2023-03-14T00:50:15;1.37;;;0.40;;
20271;SDS011;10295;49.812;9.866;2023-03-14T00:52:42;6.07;;;0.93;;
20271;SDS011;10295;49.812;9.866;2023-03-14T00:55:09;5.17;;;0.87;;
20271;SDS011;10295;49.812;9.866;2023-03-14T00:57:36;2.47;;;0.70;;
20271;SDS011;10295;49.812;9.866;2023-03-14T01:00:03;3.90;;;0.90;;
20271;SDS011;10295;49.812;9.866;2023-03-14T01:02:32;2.20;;;0.67;;
20271;SDS011;10295;49.812;9.866;2023-03-14T01:04:59;3.67;;;0.90;;
20271;SDS011;10295;49.812;9.866;2023-03-14T01:07:27;6.47;;;1.00;;
20271;SDS011;10295;49.812;9.866;2023-03-14T01:09:54;1.30;;;0.60;;
20271;SDS011;10295;49.812;9.866;2023-03-14T01:12:21;4.60;;;0.90;;
20271;SDS011;10295;49.812;9.866;2023-03-14T01:14:48;3.90;;;0.97;;
20271;SDS011;10295;49.812;9.866;2023-03-14T01:17:15;2.53;;;0.77;;
20271;SDS011;10295;49.812;9.866;2023-03-14T01:19:42;2.23;;;0.60;;
20271;SDS011;10295;49.812;9.866;2023-03-14T01:22:09;4.97;;;0.80;;
20271;SDS011;10295;49.812;9.866;2023-03-14T01:24:37;4.53;;;0.90;;
20271;SDS011;10295;49.812;9.866;2023-03-14T01:27:04;4.37;;;1.10;;
20271;SDS011;10295;49.812;9.866;2023-03-14T01:29:31;7.33;;;1.00;;
20271;SDS011;10295;49.812;9.866;2023-03-14T01:31:58;2.17;;;0.80;;
20271;SDS011;10295;49.812;9.866;2023-03-14T01:34:25;4.20;;;1.20;;
20271;SDS011;10295;49.812;9.866;2023-03-14T01:36:53;3.40;;;0.90;;
20271;SDS011;10295;49.812;9.866;2023-03-14T01:39:20;2.90;;;0.97;;
20271;SDS011;10295;49.812;9.866;2023-03-14T01:41:47;3.73;;;0.80;;
20271;SDS011;10295;49.812;9.866;2023-03-14T01:44:14;3.13;;;0.80;;
20271;SDS011;10295;49.812;9.866;2023-03-14T01:51:44;2.77;;;0.80;;
20271;SDS011;10295;49.812;9.866;2023-03-14T01:54:28;2.67;;;0.80;;
20271;SDS011;10295;49.812;9.866;2023-03-14T01:57:03;3.60;;;1.00;;
20271;SDS011;10295;49.812;9.866;2023-03-14T01:59:31;4.53;;;0.90;;
20271;SDS011;10295;49.812;9.866;2023-03-14T02:01:59;4.23;;;1.10;;
20271;SDS011;10295;49.812;9.866;2023-03-14T02:04:28;3.13;;;1.00;;
20271;SDS011;10295;49.812;9.866;2023-03-14T02:09:44;2.90;;;0.97;;
20271;SDS011;10295;49.812;9.866;2023-03-14T02:12:12;2.63;;;1.00;;
20271;SDS011;10295;49.812;9.866;2023-03-14T02:14:41;4.77;;;0.90;;
20271;SDS011;10295;49.812;9.866;2023-03-14T02:17:14;4.43;;;0.90;;
20271;SDS011;10295;49.812;9.866;2023-03-14T02:22:13;3.27;;;0.80;;
20271;SDS011;10295;49.812;9.866;2023-03-14T02:27:14;3.70;;;0.73;;
20271;SDS011;10295;49.812;9.866;2023-03-14T02:30:01;3.33;;;0.80;;
20271;SDS011;10295;49.812;9.866;2023-03-14T02:32:29;4.57;;;1.03;;
20271;SDS011;10295;49.812;9.866;2023-03-14T02:34:57;3.60;;;0.80;;
20271;SDS011;10295;49.812;9.866;2023-03-14T02:37:27;4.47;;;0.80;;
20271;SDS011;10295;49.812;9.866;2023-03-14T02:39:57;3.20;;;0.90;;
20271;SDS011;10295;49.812;9.866;2023-03-14T02:42:24;4.83;;;0.90;;
20271;SDS011;10295;49.812;9.866;2023-03-14T02:44:53;4.90;;;1.30;;
20271;SDS011;10295;49.812;9.866;2023-03-14T02:47:22;3.57;;;0.83;;
20271;SDS011;10295;49.812;9.866;2023-03-14T02:49:53;3.97;;;1.00;;
20271;SDS011;10295;49.812;9.866;2023-03-14T02:52:20;2.77;;;1.10;;
20271;SDS011;10295;49.812;9.866;2023-03-14T02:54:48;4.83;;;0.93;;
20271;SDS011;10295;49.812;9.866;2023-03-14T02:57:15;3.20;;;1.00;;
20271;SDS011;10295;49.812;9.866;2023-03-14T02:59:42;2.80;;;0.90;;
20271;SDS011;10295;49.812;9.866;2023-03-14T03:02:09;3.37;;;0.87;;
20271;SDS011;10295;49.812;9.866;2023-03-14T03:04:36;2.97;;;0.90;;
20271;SDS011;10295;49.812;9.866;2023-03-14T03:07:03;2.40;;;0.80;;
20271;SDS011;10295;49.812;9.866;2023-03-14T03:09:30;2.37;;;0.87;;
20271;SDS011;10295;49.812;9.866;2023-03-14T03:11:58;7.17;;;1.07;;
20271;SDS011;10295;49.812;9.866;2023-03-14T03:14:25;4.33;;;1.00;;
20271;SDS011;10295;49.812;9.866;2023-03-14T03:16:52;3.57;;;0.90;;
20271;SDS011;10295;49.812;9.866;2023-03-14T03:19:19;4.90;;;1.07;;
20271;SDS011;10295;49.812;9.866;2023-03-14T03:21:46;3.60;;;0.90;;
20271;SDS011;10295;49.812;9.866;2023-03-14T03:24:14;5.17;;;1.10;;
20271;SDS011;10295;49.812;9.866;2023-03-14T03:26:41;4.20;;;0.97;;
20271;SDS011;10295;49.812;9.866;2023-03-14T03:29:08;3.83;;;0.90;;
20271;SDS011;10295;49.812;9.866;2023-03-14T03:31:36;5.53;;;0.97;;
20271;SDS011;10295;49.812;9.866;2023-03-14T03:34:04;3.93;;;1.00;;
20271;SDS011;10295;49.812;9.866;2023-03-14T03:36:31;3.13;;;0.90;;
20271;SDS011;10295;49.812;9.866;2023-03-14T03:38:58;3.03;;;1.03;;
20271;SDS011;10295;49.812;9.866;2023-03-14T03:41:25;3.87;;;1.20;;
20271;SDS011;10295;49.812;9.866;2023-03-14T03:43:52;3.87;;;0.90;;
20271;SDS011;10295;49.812;9.866;2023-03-14T03:46:20;4.90;;;1.07;;
20271;SDS011;10295;49.812;9.866;2023-03-14T03:48:47;3.83;;;1.00;;
20271;SDS011;10295;49.812;9.866;2023-03-14T03:51:15;4.10;;;1.00;;
20271;SDS011;10295;49.812;9.866;2023-03-14T03:53:42;6.43;;;1.10;;
20271;SDS011;10295;49.812;9.866;2023-03-14T03:56:10;2.60;;;0.90;;
20271;SDS011;10295;49.812;9.866;2023-03-14T03:58:37;2.70;;;0.83;;
20271;SDS011;10295;49.812;9.866;2023-03-14T04:01:05;4.43;;;1.00;;
20271;SDS011;10295;49.812;9.866;2023-03-14T04:03:33;4.00;;;1.10;;
20271;SDS011;10295;49.812;9.866;2023-03-14T04:06:01;3.80;;;1.10;;
20271;SDS011;10295;49.812;9.866;2023-03-14T04:08:29;3.40;;;0.90;;
20271;SDS011;10295;49.812;9.866;2023-03-14T04:10:57;5.80;;;1.30;;
20271;SDS011;10295;49.812;9.866;2023-03-14T04:13:24;4.43;;;1.00;;
20271;SDS011;10295;49.812;9.866;2023-03-14T04:15:52;3.73;;;1.10;;
20271;SDS011;10295;49.812;9.866;2023-03-14T04:18:20;5.60;;;1.10;;
20271;SDS011;10295;49.812;9.866;2023-03-14T04:20:51;6.53;;;1.30;;
20271;SDS011;10295;49.812;9.866;2023-03-14T04:23:18;5.43;;;1.40;;
20271;SDS011;10295;49.812;9.866;2023-03-14T04:25:46;6.47;;;1.53;;
20271;SDS011;10295;49.812;9.866;2023-03-14T04:28:14;5.90;;;1.30;;
20271;SDS011;10295;49.812;9.866;2023-03-14T04:30:41;4.67;;;1.20;;
20271;SDS011;10295;49.812;9.866;2023-03-14T04:33:08;8.77;;;1.30;;
20271;SDS011;10295;49.812;9.866;2023-03-14T04:35:35;4.73;;;1.20;;
20271;SDS011;10295;49.812;9.866;2023-03-14T04:38:03;3.53;;;1.10;;
20271;SDS011;10295;49.812;9.866;2023-03-14T04:40:30;6.73;;;1.30;;
20271;SDS011;10295;49.812;9.866;2023-03-14T04:42:57;3.57;;;1.20;;
20271;SDS011;10295;49.812;9.866;2023-03-14T04:45:24;7.37;;;1.37;;
20271;SDS011;10295;49.812;9.866;2023-03-14T04:47:51;6.93;;;1.57;;
20271;SDS011;10295;49.812;9.866;2023-03-14T04:50:18;3.77;;;0.97;;
20271;SDS011;10295;49.812;9.866;2023-03-14T04:52:46;8.03;;;1.13;;
20271;SDS011;10295;49.812;9.866;2023-03-14T04:55:13;4.60;;;1.10;;
20271;SDS011;10295;49.812;9.866;2023-03-14T04:57:40;5.43;;;1.07;;
20271;SDS011;10295;49.812;9.866;2023-03-14T05:00:07;5.67;;;1.17;;
20271;SDS011;10295;49.812;9.866;2023-03-14T05:02:35;2.30;;;0.87;;
20271;SDS011;10295;49.812;9.866;2023-03-14T05:05:02;7.63;;;1.20;;
20271;SDS011;10295;49.812;9.866;2023-03-14T05:07:29;4.23;;;1.00;;
20271;SDS011;10295;49.812;9.866;2023-03-14T05:09:56;8.10;;;1.33;;
20271;SDS011;10295;49.812;9.866;2023-03-14T05:12:24;5.27;;;1.00;;
20271;SDS011;10295;49.812;9.866;2023-03-14T05:14:51;5.20;;;1.10;;
20271;SDS011;10295;49.812;9.866;2023-03-14T05:17:18;6.47;;;1.07;;
20271;SDS011;10295;49.812;9.866;2023-03-14T05:19:46;4.80;;;1.17;;
20271;SDS011;10295;49.812;9.866;2023-03-14T05:22:13;5.17;;;1.10;;
20271;SDS011;10295;49.812;9.866;2023-03-14T05:24:40;6.00;;;1.10;;
20271;SDS011;10295;49.812;9.866;2023-03-14T05:27:07;5.57;;;1.17;;
20271;SDS011;10295;49.812;9.866;2023-03-14T05:29:34;6.77;;;1.20;;
20271;SDS011;10295;49.812;9.866;2023-03-14T05:32:01;3.87;;;1.10;;
20271;SDS011;10295;49.812;9.866;2023-03-14T05:34:29;5.17;;;1.00;;
20271;SDS011;10295;49.812;9.866;2023-03-14T05:36:56;4.53;;;1.13;;
20271;SDS011;10295;49.812;9.866;2023-03-14T05:39:23;6.27;;;1.20;;
20271;SDS011;10295;49.812;9.866;2023-03-14T05:41:50;5.63;;;1.07;;
20271;SDS011;10295;49.812;9.866;2023-03-14T05:44:20;8.17;;;1.37;;
20271;SDS011;10295;49.812;9.866;2023-03-14T05:46:47;11.80;;;1.43;;
20271;SDS011;10295;49.812;9.866;2023-03-14T05:49:14;6.63;;;1.10;;
20271;SDS011;10295;49.812;9.866;2023-03-14T05:51:41;6.00;;;1.20;;
20271;SDS011;10295;49.812;9.866;2023-03-14T05:54:08;6.57;;;1.10;;
20271;SDS011;10295;49.812;9.866;2023-03-14T05:56:35;6.93;;;1.23;;
20271;SDS011;10295;49.812;9.866;2023-03-14T05:59:02;4.67;;;1.00;;
20271;SDS011;10295;49.812;9.866;2023-03-14T06:01:30;5.60;;;1.10;;
20271;SDS011;10295;49.812;9.866;2023-03-14T06:03:57;6.67;;;1.20;;
20271;SDS011;10295;49.812;9.866;2023-03-14T06:06:24;7.53;;;1.20;;
20271;SDS011;10295;49.812;9.866;2023-03-14T06:08:51;6.37;;;1.20;;
20271;SDS011;10295;49.812;9.866;2023-03-14T06:11:18;4.77;;;1.07;;
20271;SDS011;10295;49.812;9.866;2023-03-14T06:13:45;6.00;;;0.90;;
20271;SDS011;10295;49.812;9.866;2023-03-14T06:16:13;6.17;;;1.37;;
20271;SDS011;10295;49.812;9.866;2023-03-14T06:18:40;5.83;;;1.20;;
20271;SDS011;10295;49.812;9.866;2023-03-14T06:21:07;5.93;;;2.13;;
20271;SDS011;10295;49.812;9.866;2023-03-14T06:23:35;6.53;;;1.40;;
20271;SDS011;10295;49.812;9.866;2023-03-14T06:26:02;8.33;;;1.20;;
20271;SDS011;10295;49.812;9.866;2023-03-14T06:28:29;3.90;;;1.00;;
20271;SDS011;10295;49.812;9.866;2023-03-14T06:30:56;6.23;;;1.00;;
20271;SDS011;10295;49.812;9.866;2023-03-14T06:33:25;5.37;;;1.10;;
20271;SDS011;10295;49.812;9.866;2023-03-14T06:35:52;5.17;;;1.20;;
20271;SDS011;10295;49.812;9.866;2023-03-14T06:38:19;5.60;;;0.97;;
20271;SDS011;10295;49.812;9.866;2023-03-14T06:40:47;4.50;;;1.00;;
20271;SDS011;10295;49.812;9.866;2023-03-14T06:43:14;6.13;;;1.10;;
20271;SDS011;10295;49.812;9.866;2023-03-14T06:45:41;7.43;;;1.10;;
20271;SDS011;10295;49.812;9.866;2023-03-14T06:48:09;7.77;;;1.10;;
20271;SDS011;10295;49.812;9.866;2023-03-14T06:50:36;8.27;;;1.20;;
20271;SDS011;10295;49.812;9.866;2023-03-14T06:53:03;6.07;;;1.00;;
20271;SDS011;10295;49.812;9.866;2023-03-14T06:55:31;4.67;;;0.93;;
20271;SDS011;10295;49.812;9.866;2023-03-14T06:57:58;4.03;;;0.90;;
20271;SDS011;10295;49.812;9.866;2023-03-14T07:00:25;6.27;;;1.17;;
20271;SDS011;10295;49.812;9.866;2023-03-14T07:02:53;9.03;;;1.20;;
20271;SDS011;10295;49.812;9.866;2023-03-14T07:05:20;4.97;;;0.90;;
20271;SDS011;10295;49.812;9.866;2023-03-14T07:07:47;5.13;;;1.00;;
20271;SDS011;10295;49.812;9.866;2023-03-14T07:10:14;6.93;;;0.83;;
20271;SDS011;10295;49.812;9.866;2023-03-14T07:12:42;6.27;;;1.20;;
20271;SDS011;10295;49.812;9.866;2023-03-14T07:15:09;5.63;;;1.10;;
20271;SDS011;10295;49.812;9.866;2023-03-14T07:17:44;4.17;;;1.00;;
20271;SDS011;10295;49.812;9.866;2023-03-14T07:20:11;7.67;;;1.30;;
20271;SDS011;10295;49.812;9.866;2023-03-14T07:22:38;4.67;;;1.00;;
20271;SDS011;10295;49.812;9.866;2023-03-14T07:25:05;4.90;;;0.90;;
20271;SDS011;10295;49.812;9.866;2023-03-14T07:27:35;2.97;;;0.93;;
20271;SDS011;10295;49.812;9.866;2023-03-14T07:30:02;7.87;;;1.30;;
20271;SDS011;10295;49.812;9.866;2023-03-14T07:32:29;2.27;;;0.73;;
20271;SDS011;10295;49.812;9.866;2023-03-14T07:34:57;7.20;;;1.10;;
20271;SDS011;10295;49.812;9.866;2023-03-14T07:37:24;10.33;;;1.40;;
20271;SDS011;10295;49.812;9.866;2023-03-14T07:39:51;11.53;;;1.20;;
20271;SDS011;10295;49.812;9.866;2023-03-14T07:42:18;6.73;;;1.00;;
20271;SDS011;10295;49.812;9.866;2023-03-14T07:44:45;4.63;;;0.90;;
20271;SDS011;10295;49.812;9.866;2023-03-14T07:47:13;7.30;;;1.30;;
20271;SDS011;10295;49.812;9.866;2023-03-14T07:49:40;7.10;;;0.97;;
20271;SDS011;10295;49.812;9.866;2023-03-14T07:52:07;3.90;;;0.90;;
20271;SDS011;10295;49.812;9.866;2023-03-14T07:54:34;6.87;;;0.97;;
20271;SDS011;10295;49.812;9.866;2023-03-14T07:57:01;7.20;;;1.07;;
20271;SDS011;10295;49.812;9.866;2023-03-14T07:59:29;6.33;;;1.00;;
20271;SDS011;10295;49.812;9.866;2023-03-14T08:01:56;7.13;;;1.13;;
20271;SDS011;10295;49.812;9.866;2023-03-14T08:04:24;4.50;;;1.00;;
20271;SDS011;10295;49.812;9.866;2023-03-14T08:06:51;5.43;;;0.90;;
20271;SDS011;10295;49.812;9.866;2023-03-14T08:09:20;6.27;;;0.97;;
20271;SDS011;10295;49.812;9.866;2023-03-14T08:11:47;6.60;;;1.20;;
20271;SDS011;10295;49.812;9.866;2023-03-14T08:14:14;4.77;;;1.00;;
20271;SDS011;10295;49.812;9.866;2023-03-14T08:16:42;5.80;;;1.10;;
20271;SDS011;10295;49.812;9.866;2023-03-14T08:19:09;5.80;;;1.00;;
20271;SDS011;10295;49.812;9.866;2023-03-14T08:21:36;7.70;;;0.90;;
20271;SDS011;10295;49.812;9.866;2023-03-14T08:24:03;4.43;;;1.20;;
20271;SDS011;10295;49.812;9.866;2023-03-14T08:26:30;5.27;;;1.00;;
20271;SDS011;10295;49.812;9.866;2023-03-14T08:28:57;3.77;;;0.70;;
20271;SDS011;10295;49.812;9.866;2023-03-14T08:31:25;5.97;;;1.00;;
20271;SDS011;10295;49.812;9.866;2023-03-14T08:33:52;6.33;;;0.90;;
20271;SDS011;10295;49.812;9.866;2023-03-14T08:36:21;3.37;;;0.80;;
20271;SDS011;10295;49.812;9.866;2023-03-14T08:38:49;5.20;;;0.83;;
20271;SDS011;10295;49.812;9.866;2023-03-14T08:41:16;4.00;;;0.90;;
20271;SDS011;10295;49.812;9.866;2023-03-14T08:43:43;6.50;;;1.03;;
20271;SDS011;10295;49.812;9.866;2023-03-14T08:46:11;8.47;;;0.80;;
20271;SDS011;10295;49.812;9.866;2023-03-14T08:48:38;2.50;;;0.70;;
20271;SDS011;10295;49.812;9.866;2023-03-14T08:51:08;9.10;;;0.90;;
20271;SDS011;10295;49.812;9.866;2023-03-14T08:53:36;3.30;;;0.67;;
20271;SDS011;10295;49.812;9.866;2023-03-14T08:56:04;3.83;;;0.90;;
20271;SDS011;10295;49.812;9.866;2023-03-14T08:58:32;2.83;;;0.77;;
20271;SDS011;10295;49.812;9.866;2023-03-14T09:01:00;4.77;;;0.80;;
20271;SDS011;10295;49.812;9.866;2023-03-14T09:03:27;2.63;;;0.57;;
20271;SDS011;10295;49.812;9.866;2023-03-14T09:05:54;4.70;;;0.60;;
20271;SDS011;10295;49.812;9.866;2023-03-14T09:08:22;2.43;;;0.60;;
20271;SDS011;10295;49.812;9.866;2023-03-14T09:10:49;3.93;;;0.73;;
20271;SDS011;10295;49.812;9.866;2023-03-14T09:13:16;1.73;;;0.43;;
20271;SDS011;10295;49.812;9.866;2023-03-14T09:15:43;6.20;;;0.70;;
20271;SDS011;10295;49.812;9.866;2023-03-14T09:18:10;2.43;;;0.60;;
20271;SDS011;10295;49.812;9.866;2023-03-14T09:20:37;1.53;;;0.50;;
20271;SDS011;10295;49.812;9.866;2023-03-14T09:23:06;3.60;;;0.60;;
20271;SDS011;10295;49.812;9.866;2023-03-14T09:25:33;0.77;;;0.30;;
20271;SDS011;10295;49.812;9.866;2023-03-14T09:28:00;2.73;;;0.53;;
20271;SDS011;10295;49.812;9.866;2023-03-14T09:30:27;3.63;;;0.53;;
20271;SDS011;10295;49.812;9.866;2023-03-14T09:32:55;4.33;;;0.60;;
20271;SDS011;10295;49.812;9.866;2023-03-14T09:35:23;2.53;;;0.50;;
20271;SDS011;10295;49.812;9.866;2023-03-14T09:37:50;4.30;;;0.53;;
20271;SDS011;10295;49.812;9.866;2023-03-14T09:40:21;2.83;;;0.50;;
20271;SDS011;10295;49.812;9.866;2023-03-14T09:42:52;1.80;;;0.67;;
20271;SDS011;10295;49.812;9.866;2023-03-14T09:45:34;1.53;;;0.50;;
20271;SDS011;10295;49.812;9.866;2023-03-14T09:48:03;1.97;;;0.50;;
20271;SDS011;10295;49.812;9.866;2023-03-14T09:50:33;8.77;;;0.83;;
20271;SDS011;10295;49.812;9.866;2023-03-14T09:53:04;3.10;;;0.80;;
20271;SDS011;10295;49.812;9.866;2023-03-14T09:55:33;4.53;;;0.70;;
20271;SDS011;10295;49.812;9.866;2023-03-14T09:58:03;5.83;;;0.60;;
20271;SDS011;10295;49.812;9.866;2023-03-14T10:00:31;3.23;;;0.50;;
20271;SDS011;10295;49.812;9.866;2023-03-14T10:05:39;2.50;;;0.67;;
20271;SDS011;10295;49.812;9.866;2023-03-14T10:08:08;2.63;;;0.60;;
20271;SDS011;10295;49.812;9.866;2023-03-14T10:10:36;3.70;;;0.60;;
20271;SDS011;10295;49.812;9.866;2023-03-14T10:13:20;5.60;;;0.67;;
20271;SDS011;10295;49.812;9.866;2023-03-14T10:16:00;5.30;;;0.70;;
20271;SDS011;10295;49.812;9.866;2023-03-14T10:18:29;3.03;;;0.50;;
20271;SDS011;10295;49.812;9.866;2023-03-14T10:23:42;3.67;;;0.70;;
20271;SDS011;10295;49.812;9.866;2023-03-14T10:26:16;3.77;;;0.70;;
20271;SDS011;10295;49.812;9.866;2023-03-14T10:28:48;3.00;;;0.73;;
20271;SDS011;10295;49.812;9.866;2023-03-14T10:31:17;2.30;;;0.60;;
20271;SDS011;10295;49.812;9.866;2023-03-14T10:34:09;2.67;;;0.67;;
20271;SDS011;10295;49.812;9.866;2023-03-14T10:36:33;3.50;;;0.60;;
20271;SDS011;10295;49.812;9.866;2023-03-14T10:39:22;2.63;;;0.47;;
20271;SDS011;10295;49.812;9.866;2023-03-14T10:41:56;2.70;;;0.60;;
20271;SDS011;10295;49.812;9.866;2023-03-14T10:44:28;2.00;;;0.50;;
20271;SDS011;10295;49.812;9.866;2023-03-14T10:47:01;3.03;;;0.80;;
20271;SDS011;10295;49.812;9.866;2023-03-14T10:49:30;3.55;;;0.73;;
20271;SDS011;10295;49.812;9.866;2023-03-14T10:52:01;1.23;;;0.50;;
20271;SDS011;10295;49.812;9.866;2023-03-14T10:54:29;4.00;;;0.63;;
20271;SDS011;10295;49.812;9.866;2023-03-14T10:57:00;2.90;;;0.63;;
20271;SDS011;10295;49.812;9.866;2023-03-14T10:59:29;1.50;;;0.50;;
20271;SDS011;10295;49.812;9.866;2023-03-14T11:02:10;1.40;;;0.60;;
20271;SDS011;10295;49.812;9.866;2023-03-14T11:07:43;1.70;;;0.57;;
20271;SDS011;10295;49.812;9.866;2023-03-14T11:15:15;1.23;;;0.40;;
20271;SDS011;10295;49.812;9.866;2023-03-14T11:30:47;5.00;;;0.50;;
20271;SDS011;10295;49.812;9.866;2023-03-14T11:33:18;2.47;;;0.50;;
20271;SDS011;10295;49.812;9.866;2023-03-14T11:35:52;1.07;;;0.47;;
20271;SDS011;10295;49.812;9.866;2023-03-14T11:38:34;1.60;;;0.40;;
20271;SDS011;10295;49.812;9.866;2023-03-14T11:41:03;0.60;;;0.40;;
20271;SDS011;10295;49.812;9.866;2023-03-14T11:43:35;1.70;;;0.50;;
20271;SDS011;10295;49.812;9.866;2023-03-14T11:46:10;2.63;;;0.57;;
20271;SDS011;10295;49.812;9.866;2023-03-14T11:48:42;2.93;;;0.60;;
20271;SDS011;10295;49.812;9.866;2023-03-14T11:51:12;1.20;;;0.50;;
20271;SDS011;10295;49.812;9.866;2023-03-14T11:56:10;4.20;;;0.80;;
20271;SDS011;10295;49.812;9.866;2023-03-14T11:58:41;2.27;;;0.60;;
20271;SDS011;10295;49.812;9.866;2023-03-14T12:01:11;1.37;;;0.50;;
20271;SDS011;10295;49.812;9.866;2023-03-14T12:03:51;0.93;;;0.57;;
20271;SDS011;10295;49.812;9.866;2023-03-14T12:06:28;3.03;;;0.40;;
20271;SDS011;10295;49.812;9.866;2023-03-14T12:08:59;2.60;;;0.60;;
20271;SDS011;10295;49.812;9.866;2023-03-14T12:11:35;4.33;;;0.67;;
20271;SDS011;10295;49.812;9.866;2023-03-14T12:14:02;1.30;;;0.40;;
20271;SDS011;10295;49.812;9.866;2023-03-14T12:16:32;1.93;;;0.60;;
20271;SDS011;10295;49.812;9.866;2023-03-14T12:19:13;1.00;;;0.50;;
20271;SDS011;10295;49.812;9.866;2023-03-14T12:21:44;1.83;;;0.53;;
20271;SDS011;10295;49.812;9.866;2023-03-14T12:24:19;1.60;;;0.60;;
20271;SDS011;10295;49.812;9.866;2023-03-14T12:26:55;2.33;;;0.60;;
20271;SDS011;10295;49.812;9.866;2023-03-14T12:29:22;0.67;;;0.50;;
20271;SDS011;10295;49.812;9.866;2023-03-14T12:34:39;1.50;;;0.40;;
20271;SDS011;10295;49.812;9.866;2023-03-14T12:42:13;1.47;;;0.50;;
20271;SDS011;10295;49.812;9.866;2023-03-14T12:44:45;2.63;;;0.47;;
20271;SDS011;10295;49.812;9.866;2023-03-14T12:49:46;1.60;;;0.40;;
20271;SDS011;10295;49.812;9.866;2023-03-14T12:52:22;1.17;;;0.40;;
20271;SDS011;10295;49.812;9.866;2023-03-14T12:59:51;3.87;;;0.90;;
20271;SDS011;10295;49.812;9.866;2023-03-14T13:04:52;2.77;;;1.03;;
20271;SDS011;10295;49.812;9.866;2023-03-14T13:08:02;1.63;;;0.80;;
20271;SDS011;10295;49.812;9.866;2023-03-14T13:10:24;2.70;;;0.70;;
20271;SDS011;10295;49.812;9.866;2023-03-14T13:13:11;2.10;;;0.90;;
20271;SDS011;10295;49.812;9.866;2023-03-14T13:15:47;1.80;;;0.83;;
20271;SDS011;10295;49.812;9.866;2023-03-14T13:18:34;2.30;;;1.10;;
20271;SDS011;10295;49.812;9.866;2023-03-14T13:21:03;2.70;;;0.73;;
20271;SDS011;10295;49.812;9.866;2023-03-14T13:23:33;0.90;;;0.50;;
20271;SDS011;10295;49.812;9.866;2023-03-14T13:26:00;0.47;;;0.40;;
20271;SDS011;10295;49.812;9.866;2023-03-14T13:28:29;4.50;;;0.40;;
20271;SDS011;10295;49.812;9.866;2023-03-14T13:31:01;1.80;;;0.50;;
20271;SDS011;10295;49.812;9.866;2023-03-14T13:33:28;2.80;;;0.40;;
20271;SDS011;10295;49.812;9.866;2023-03-14T13:35:57;0.90;;;0.30;;
20271;SDS011;10295;49.812;9.866;2023-03-14T13:38:25;1.87;;;0.30;;
20271;SDS011;10295;49.812;9.866;2023-03-14T13:40:54;2.30;;;0.40;;
20271;SDS011;10295;49.812;9.866;2023-03-14T13:43:27;1.23;;;0.47;;
20271;SDS011;10295;49.812;9.866;2023-03-14T13:46:01;0.30;;;0.20;;
20271;SDS011;10295;49.812;9.866;2023-03-14T13:48:29;0.87;;;0.30;;
20271;SDS011;10295;49.812;9.866;2023-03-14T13:51:06;1.20;;;0.40;;
20271;SDS011;10295;49.812;9.866;2023-03-14T13:53:51;0.20;;;0.20;;
20271;SDS011;10295;49.812;9.866;2023-03-14T13:56:20;2.03;;;0.37;;
20271;SDS011;10295;49.812;9.866;2023-03-14T13:58:47;0.40;;;0.30;;
20271;SDS011;10295;49.812;9.866;2023-03-14T14:01:30;2.13;;;0.70;;
20271;SDS011;10295;49.812;9.866;2023-03-14T14:04:02;2.77;;;0.90;;
20271;SDS011;10295;49.812;9.866;2023-03-14T14:06:34;2.00;;;0.80;;
20271;SDS011;10295;49.812;9.866;2023-03-14T14:09:04;1.23;;;0.50;;
20271;SDS011;10295;49.812;9.866;2023-03-14T14:11:38;0.30;;;0.20;;
20271;SDS011;10295;49.812;9.866;2023-03-14T14:16:48;0.50;;;0.40;;
20271;SDS011;10295;49.812;9.866;2023-03-14T14:19:19;3.30;;;0.60;;
20271;SDS011;10295;49.812;9.866;2023-03-14T14:21:48;4.20;;;1.00;;
20271;SDS011;10295;49.812;9.866;2023-03-14T14:24:16;2.60;;;0.73;;
20271;SDS011;10295;49.812;9.866;2023-03-14T14:26:47;4.43;;;0.70;;
20271;SDS011;10295;49.812;9.866;2023-03-14T14:29:23;1.50;;;0.40;;
20271;SDS011;10295;49.812;9.866;2023-03-14T14:32:25;1.80;;;0.70;;
20271;SDS011;10295;49.812;9.866;2023-03-14T14:39:54;1.93;;;0.70;;
20271;SDS011;10295;49.812;9.866;2023-03-14T14:42:24;1.03;;;0.60;;
20271;SDS011;10295;49.812;9.866;2023-03-14T14:44:52;0.83;;;0.40;;
20271;SDS011;10295;49.812;9.866;2023-03-14T14:47:20;1.27;;;0.60;;
20271;SDS011;10295;49.812;9.866;2023-03-14T14:49:48;1.67;;;0.60;;
20271;SDS011;10295;49.812;9.866;2023-03-14T14:52:22;2.60;;;0.80;;
20271;SDS011;10295;49.812;9.866;2023-03-14T14:54:58;2.63;;;0.80;;
20271;SDS011;10295;49.812;9.866;2023-03-14T14:57:37;3.80;;;0.60;;
20271;SDS011;10295;49.812;9.866;2023-03-14T15:00:07;0.93;;;0.50;;
20271;SDS011;10295;49.812;9.866;2023-03-14T15:02:39;1.30;;;0.50;;
20271;SDS011;10295;49.812;9.866;2023-03-14T15:05:25;1.57;;;0.50;;
20271;SDS011;10295;49.812;9.866;2023-03-14T15:07:53;0.60;;;0.50;;
20271;SDS011;10295;49.812;9.866;2023-03-14T15:10:22;0.70;;;0.53;;
20271;SDS011;10295;49.812;9.866;2023-03-14T15:12:49;1.00;;;0.60;;
20271;SDS011;10295;49.812;9.866;2023-03-14T15:15:17;1.57;;;0.60;;
20271;SDS011;10295;49.812;9.866;2023-03-14T15:17:44;1.10;;;0.57;;
20271;SDS011;10295;49.812;9.866;2023-03-14T15:20:13;1.50;;;0.70;;
20271;SDS011;10295;49.812;9.866;2023-03-14T15:22:41;1.00;;;0.57;;
20271;SDS011;10295;49.812;9.866;2023-03-14T15:25:08;1.80;;;0.80;;
20271;SDS011;10295;49.812;9.866;2023-03-14T15:27:56;0.97;;;0.70;;
20271;SDS011;10295;49.812;9.866;2023-03-14T15:30:23;3.20;;;1.07;;
20271;SDS011;10295;49.812;9.866;2023-03-14T15:32:51;4.07;;;1.00;;
20271;SDS011;10295;49.812;9.866;2023-03-14T15:35:18;4.50;;;1.30;;
20271;SDS011;10295;49.812;9.866;2023-03-14T15:37:45;3.27;;;1.20;;
20271;SDS011;10295;49.812;9.866;2023-03-14T15:40:12;3.63;;;1.30;;
20271;SDS011;10295;49.812;9.866;2023-03-14T15:42:40;1.97;;;1.07;;
20271;SDS011;10295;49.812;9.866;2023-03-14T15:45:08;2.23;;;1.00;;
20271;SDS011;10295;49.812;9.866;2023-03-14T15:47:35;4.43;;;1.20;;
20271;SDS011;10295;49.812;9.866;2023-03-14T15:50:03;3.80;;;1.30;;
20271;SDS011;10295;49.812;9.866;2023-03-14T15:52:30;2.73;;;1.07;;
20271;SDS011;10295;49.812;9.866;2023-03-14T15:54:57;2.40;;;1.00;;
20271;SDS011;10295;49.812;9.866;2023-03-14T15:57:26;1.00;;;0.53;;
20271;SDS011;10295;49.812;9.866;2023-03-14T15:59:53;9.63;;;0.90;;
20271;SDS011;10295;49.812;9.866;2023-03-14T16:02:20;0.87;;;0.50;;
20271;SDS011;10295;49.812;9.866;2023-03-14T16:04:47;2.00;;;0.70;;
20271;SDS011;10295;49.812;9.866;2023-03-14T16:07:15;1.33;;;0.50;;